Terminal Aerodrome Forecast
Issued by NWS Chicago, IL

Home | Current Version | Previous Version | Text Only | Print | Product List | Glossary Off
Versions: 1 2 3 4 5 6 7 8 9 10 11 12 13 14 15 16 17 18 19 20 21 22 23 24 25 26 27 28 29 30 31 32

000
FTUS43 KLOT 151100
TAFRFD
TAF
KRFD 151132Z 1512/1612 17007KT 1 1/2SM -DZ BR OVC002
     FM151400 17011KT 4SM BR OVC005
     FM151700 15014KT 5SM -SHRA BR OVC012
     FM152200 13013KT 4SM BR VCSH OVC009
     FM160100 12010KT 2SM -DZRA BR OVC006
     FM160500 VRB04KT 3/4SM -DZRA BR OVC003=

USA.gov is the U.S. government's official web portal to all federal, state and local government web resources and services.